sensor_id;sensor_type;location;lat;lon;timestamp;P1;durP1;ratioP1;P2;durP2;ratioP2
73104;SDS011;61296;50.526;30.792;2023-09-30T00:06:15;20.15;;;11.50;;
73104;SDS011;61296;50.526;30.792;2023-09-30T00:21:34;19.90;;;11.75;;
73104;SDS011;61296;50.526;30.792;2023-09-30T00:36:53;18.98;;;10.40;;
73104;SDS011;61296;50.526;30.792;2023-09-30T00:52:12;21.10;;;11.70;;
73104;SDS011;61296;50.526;30.792;2023-09-30T01:07:33;21.00;;;11.77;;
73104;SDS011;61296;50.526;30.792;2023-09-30T01:22:53;21.42;;;11.98;;
73104;SDS011;61296;50.526;30.792;2023-09-30T01:38:13;23.13;;;12.02;;
73104;SDS011;61296;50.526;30.792;2023-09-30T01:53:33;21.02;;;12.63;;
73104;SDS011;61296;50.526;30.792;2023-09-30T02:08:52;21.17;;;11.88;;
73104;SDS011;61296;50.526;30.792;2023-09-30T02:24:11;22.85;;;12.95;;
73104;SDS011;61296;50.526;30.792;2023-09-30T02:39:30;25.67;;;14.07;;
73104;SDS011;61296;50.526;30.792;2023-09-30T02:54:49;21.42;;;13.07;;
73104;SDS011;61296;50.526;30.792;2023-09-30T03:10:09;30.13;;;13.95;;
73104;SDS011;61296;50.526;30.792;2023-09-30T03:25:28;31.52;;;15.40;;
73104;SDS011;61296;50.526;30.792;2023-09-30T03:40:49;23.67;;;14.48;;
73104;SDS011;61296;50.526;30.792;2023-09-30T03:56:09;30.08;;;15.38;;
73104;SDS011;61296;50.526;30.792;2023-09-30T04:11:30;23.73;;;14.25;;
73104;SDS011;61296;50.526;30.792;2023-09-30T04:26:49;24.73;;;14.38;;
73104;SDS011;61296;50.526;30.792;2023-09-30T04:42:11;28.40;;;15.85;;
73104;SDS011;61296;50.526;30.792;2023-09-30T04:57:31;30.25;;;17.70;;
73104;SDS011;61296;50.526;30.792;2023-09-30T05:12:50;33.20;;;17.58;;
73104;SDS011;61296;50.526;30.792;2023-09-30T05:28:13;26.63;;;15.77;;
73104;SDS011;61296;50.526;30.792;2023-09-30T05:43:33;34.70;;;19.35;;
73104;SDS011;61296;50.526;30.792;2023-09-30T05:58:53;31.25;;;16.73;;
73104;SDS011;61296;50.526;30.792;2023-09-30T06:14:12;30.50;;;16.25;;
73104;SDS011;61296;50.526;30.792;2023-09-30T06:29:32;31.52;;;15.82;;
73104;SDS011;61296;50.526;30.792;2023-09-30T06:44:52;25.02;;;12.27;;
73104;SDS011;61296;50.526;30.792;2023-09-30T07:00:13;25.15;;;11.50;;
73104;SDS011;61296;50.526;30.792;2023-09-30T07:15:32;23.65;;;10.85;;
73104;SDS011;61296;50.526;30.792;2023-09-30T07:30:51;50.10;;;13.10;;
73104;SDS011;61296;50.526;30.792;2023-09-30T07:46:11;25.33;;;10.95;;
73104;SDS011;61296;50.526;30.792;2023-09-30T08:01:31;22.70;;;9.00;;
73104;SDS011;61296;50.526;30.792;2023-09-30T08:16:50;20.33;;;7.88;;
73104;SDS011;61296;50.526;30.792;2023-09-30T08:32:09;19.17;;;8.00;;
73104;SDS011;61296;50.526;30.792;2023-09-30T08:47:29;11.45;;;6.00;;
73104;SDS011;61296;50.526;30.792;2023-09-30T09:02:49;25.35;;;6.15;;
73104;SDS011;61296;50.526;30.792;2023-09-30T09:18:09;9.95;;;5.28;;
73104;SDS011;61296;50.526;30.792;2023-09-30T09:33:36;23.77;;;6.38;;
73104;SDS011;61296;50.526;30.792;2023-09-30T09:48:55;11.63;;;6.38;;
73104;SDS011;61296;50.526;30.792;2023-09-30T10:04:16;20.95;;;7.43;;
73104;SDS011;61296;50.526;30.792;2023-09-30T10:50:49;11.60;;;6.88;;
73104;SDS011;61296;50.526;30.792;2023-09-30T11:06:13;30.60;;;8.60;;
73104;SDS011;61296;50.526;30.792;2023-09-30T11:21:36;13.95;;;7.00;;
73104;SDS011;61296;50.526;30.792;2023-09-30T11:36:55;23.10;;;7.70;;
73104;SDS011;61296;50.526;30.792;2023-09-30T11:52:15;14.30;;;7.03;;
73104;SDS011;61296;50.526;30.792;2023-09-30T12:07:34;16.00;;;7.03;;
73104;SDS011;61296;50.526;30.792;2023-09-30T12:22:54;15.15;;;7.68;;
73104;SDS011;61296;50.526;30.792;2023-09-30T12:38:14;12.68;;;6.70;;
73104;SDS011;61296;50.526;30.792;2023-09-30T12:53:35;11.02;;;6.40;;
73104;SDS011;61296;50.526;30.792;2023-09-30T13:08:54;11.90;;;6.32;;
73104;SDS011;61296;50.526;30.792;2023-09-30T13:24:13;13.10;;;6.80;;
73104;SDS011;61296;50.526;30.792;2023-09-30T13:39:33;12.93;;;6.15;;
73104;SDS011;61296;50.526;30.792;2023-09-30T13:54:53;13.75;;;6.72;;
73104;SDS011;61296;50.526;30.792;2023-09-30T14:10:13;17.10;;;7.47;;
73104;SDS011;61296;50.526;30.792;2023-09-30T14:25:33;16.50;;;7.10;;
73104;SDS011;61296;50.526;30.792;2023-09-30T14:40:53;18.77;;;7.78;;
73104;SDS011;61296;50.526;30.792;2023-09-30T14:56:15;13.63;;;7.53;;
73104;SDS011;61296;50.526;30.792;2023-09-30T15:11:38;13.68;;;9.35;;
73104;SDS011;61296;50.526;30.792;2023-09-30T15:26:57;23.95;;;14.52;;
73104;SDS011;61296;50.526;30.792;2023-09-30T15:42:17;27.02;;;13.13;;
73104;SDS011;61296;50.526;30.792;2023-09-30T15:57:37;23.50;;;13.57;;
73104;SDS011;61296;50.526;30.792;2023-09-30T16:12:59;19.65;;;12.93;;
73104;SDS011;61296;50.526;30.792;2023-09-30T16:28:18;29.20;;;16.52;;
73104;SDS011;61296;50.526;30.792;2023-09-30T16:43:37;38.03;;;18.42;;
73104;SDS011;61296;50.526;30.792;2023-09-30T16:58:57;52.45;;;29.33;;
73104;SDS011;61296;50.526;30.792;2023-09-30T17:14:17;54.83;;;31.27;;
73104;SDS011;61296;50.526;30.792;2023-09-30T17:45:01;28.02;;;17.15;;
73104;SDS011;61296;50.526;30.792;2023-09-30T18:00:21;29.13;;;15.68;;
73104;SDS011;61296;50.526;30.792;2023-09-30T18:15:40;29.98;;;15.63;;
73104;SDS011;61296;50.526;30.792;2023-09-30T18:31:01;28.27;;;16.52;;
73104;SDS011;61296;50.526;30.792;2023-09-30T18:46:20;27.02;;;16.13;;
73104;SDS011;61296;50.526;30.792;2023-09-30T19:01:39;25.25;;;15.27;;
73104;SDS011;61296;50.526;30.792;2023-09-30T19:16:58;23.35;;;14.48;;
73104;SDS011;61296;50.526;30.792;2023-09-30T19:32:18;23.02;;;13.52;;
73104;SDS011;61296;50.526;30.792;2023-09-30T19:47:37;22.52;;;14.48;;
73104;SDS011;61296;50.526;30.792;2023-09-30T20:02:58;26.73;;;15.40;;
73104;SDS011;61296;50.526;30.792;2023-09-30T20:18:18;30.23;;;18.15;;
73104;SDS011;61296;50.526;30.792;2023-09-30T20:33:39;27.15;;;15.13;;
73104;SDS011;61296;50.526;30.792;2023-09-30T20:48:58;29.05;;;17.00;;
73104;SDS011;61296;50.526;30.792;2023-09-30T21:04:17;26.63;;;14.27;;
73104;SDS011;61296;50.526;30.792;2023-09-30T21:19:39;26.35;;;14.27;;
73104;SDS011;61296;50.526;30.792;2023-09-30T21:34:58;23.02;;;13.05;;
73104;SDS011;61296;50.526;30.792;2023-09-30T21:50:17;22.80;;;13.18;;
73104;SDS011;61296;50.526;30.792;2023-09-30T22:05:37;22.25;;;13.05;;
73104;SDS011;61296;50.526;30.792;2023-09-30T22:21:00;18.20;;;11.88;;
73104;SDS011;61296;50.526;30.792;2023-09-30T22:36:19;23.05;;;13.57;;
73104;SDS011;61296;50.526;30.792;2023-09-30T22:51:39;21.75;;;12.70;;
73104;SDS011;61296;50.526;30.792;2023-09-30T23:06:58;20.35;;;12.75;;
73104;SDS011;61296;50.526;30.792;2023-09-30T23:22:20;22.25;;;13.45;;
73104;SDS011;61296;50.526;30.792;2023-09-30T23:37:38;20.45;;;12.90;;
73104;SDS011;61296;50.526;30.792;2023-09-30T23:52:58;22.67;;;13.68;;
